sensor_id;sensor_type;location;lat;lon;timestamp;pressure;altitude;pressure_sealevel;temperature;humidity
55550;BME280;41397;49.972;18.944;2023-04-19T00:01:20;102130.53;;;15.25;71.42
55550;BME280;41397;49.972;18.944;2023-04-19T00:04:23;102121.35;;;15.25;71.83
55550;BME280;41397;49.972;18.944;2023-04-19T00:07:25;102128.64;;;15.26;71.76
55550;BME280;41397;49.972;18.944;2023-04-19T00:10:27;102122.98;;;15.27;71.96
55550;BME280;41397;49.972;18.944;2023-04-19T00:13:28;102122.98;;;15.27;71.50
55550;BME280;41397;49.972;18.944;2023-04-19T00:16:30;102120.23;;;15.27;71.85
55550;BME280;41397;49.972;18.944;2023-04-19T00:19:31;102116.61;;;15.27;71.96
55550;BME280;41397;49.972;18.944;2023-04-19T00:22:33;102105.73;;;15.25;72.06
55550;BME280;41397;49.972;18.944;2023-04-19T00:25:35;102107.57;;;15.25;72.51
55550;BME280;41397;49.972;18.944;2023-04-19T00:28:36;102104.95;;;15.23;72.34
55550;BME280;41397;49.972;18.944;2023-04-19T00:31:37;102100.21;;;15.25;72.39
55550;BME280;41397;49.972;18.944;2023-04-19T00:34:39;102100.32;;;15.24;72.20
55550;BME280;41397;49.972;18.944;2023-04-19T00:37:41;102093.94;;;15.23;72.54
55550;BME280;41397;49.972;18.944;2023-04-19T00:40:42;102090.42;;;15.21;72.00
55550;BME280;41397;49.972;18.944;2023-04-19T00:43:44;102094.05;;;15.22;72.45
55550;BME280;41397;49.972;18.944;2023-04-19T00:46:45;102089.66;;;15.19;72.71
55550;BME280;41397;49.972;18.944;2023-04-19T00:49:47;102086.90;;;15.19;72.54
55550;BME280;41397;49.972;18.944;2023-04-19T00:52:48;102082.30;;;15.20;72.41
55550;BME280;41397;49.972;18.944;2023-04-19T00:55:51;102081.28;;;15.21;72.62
55550;BME280;41397;49.972;18.944;2023-04-19T00:58:53;102076.13;;;15.16;72.28
55550;BME280;41397;49.972;18.944;2023-04-19T01:01:56;102071.88;;;15.12;72.52
55550;BME280;41397;49.972;18.944;2023-04-19T01:04:57;102065.62;;;15.10;72.46
55550;BME280;41397;49.972;18.944;2023-04-19T01:07:58;102057.35;;;15.10;73.17
55550;BME280;41397;49.972;18.944;2023-04-19T01:11:00;102053.72;;;15.09;73.00
55550;BME280;41397;49.972;18.944;2023-04-19T01:14:02;102054.48;;;15.12;72.81
55550;BME280;41397;49.972;18.944;2023-04-19T01:17:05;102052.71;;;15.10;73.28
55550;BME280;41397;49.972;18.944;2023-04-19T01:20:08;102040.70;;;15.12;72.90
55550;BME280;41397;49.972;18.944;2023-04-19T01:23:10;102043.45;;;15.12;73.32
55550;BME280;41397;49.972;18.944;2023-04-19T01:26:12;102045.20;;;15.13;72.78
55550;BME280;41397;49.972;18.944;2023-04-19T01:29:14;102040.80;;;15.10;72.90
55550;BME280;41397;49.972;18.944;2023-04-19T01:32:15;102040.57;;;15.13;73.12
55550;BME280;41397;49.972;18.944;2023-04-19T01:35:17;102025.05;;;15.12;72.88
55550;BME280;41397;49.972;18.944;2023-04-19T01:38:19;102026.93;;;15.12;72.64
55550;BME280;41397;49.972;18.944;2023-04-19T01:41:20;102027.04;;;15.10;72.72
55550;BME280;41397;49.972;18.944;2023-04-19T01:44:26;102014.13;;;15.10;72.91
55550;BME280;41397;49.972;18.944;2023-04-19T01:47:29;102014.28;;;15.09;72.52
55550;BME280;41397;49.972;18.944;2023-04-19T01:50:30;102011.52;;;15.09;72.61
55550;BME280;41397;49.972;18.944;2023-04-19T01:53:32;102019.79;;;15.09;72.71
55550;BME280;41397;49.972;18.944;2023-04-19T01:56:33;102006.88;;;15.09;72.89
55550;BME280;41397;49.972;18.944;2023-04-19T01:59:34;101998.00;;;15.06;72.40
55550;BME280;41397;49.972;18.944;2023-04-19T02:02:38;102001.63;;;15.06;72.70
55550;BME280;41397;49.972;18.944;2023-04-19T02:05:40;101995.25;;;15.06;72.78
55550;BME280;41397;49.972;18.944;2023-04-19T02:08:42;101995.10;;;15.07;72.93
55550;BME280;41397;49.972;18.944;2023-04-19T02:11:43;101981.47;;;15.06;72.50
55550;BME280;41397;49.972;18.944;2023-04-19T02:14:44;101983.33;;;15.05;71.84
55550;BME280;41397;49.972;18.944;2023-04-19T02:17:46;101983.47;;;15.04;72.08
55550;BME280;41397;49.972;18.944;2023-04-19T02:20:47;101982.46;;;15.05;72.05
55550;BME280;41397;49.972;18.944;2023-04-19T02:23:50;101981.59;;;15.04;72.28
55550;BME280;41397;49.972;18.944;2023-04-19T02:26:52;101976.07;;;15.04;72.41
55550;BME280;41397;49.972;18.944;2023-04-19T02:29:53;101977.20;;;15.02;72.35
55550;BME280;41397;49.972;18.944;2023-04-19T02:32:54;101966.17;;;15.02;72.24
55550;BME280;41397;49.972;18.944;2023-04-19T02:35:58;101969.05;;;15.00;72.30
55550;BME280;41397;49.972;18.944;2023-04-19T02:38:59;101957.30;;;14.98;72.34
55550;BME280;41397;49.972;18.944;2023-04-19T02:42:00;101957.41;;;14.97;71.99
55550;BME280;41397;49.972;18.944;2023-04-19T02:45:02;101949.29;;;14.95;71.83
55550;BME280;41397;49.972;18.944;2023-04-19T02:48:04;101951.14;;;14.95;71.69
55550;BME280;41397;49.972;18.944;2023-04-19T02:51:06;101944.76;;;14.94;71.79
55550;BME280;41397;49.972;18.944;2023-04-19T02:54:08;101939.51;;;14.91;71.56
55550;BME280;41397;49.972;18.944;2023-04-19T02:57:09;101944.40;;;14.87;71.46
55550;BME280;41397;49.972;18.944;2023-04-19T03:00:11;101933.49;;;14.86;71.23
55550;BME280;41397;49.972;18.944;2023-04-19T03:03:14;101922.23;;;14.78;71.25
55550;BME280;41397;49.972;18.944;2023-04-19T03:06:16;101917.12;;;14.73;71.04
55550;BME280;41397;49.972;18.944;2023-04-19T03:09:17;101916.73;;;14.67;71.04
55550;BME280;41397;49.972;18.944;2023-04-19T03:12:18;101918.87;;;14.63;70.70
55550;BME280;41397;49.972;18.944;2023-04-19T03:15:20;101900.96;;;14.57;70.53
55550;BME280;41397;49.972;18.944;2023-04-19T03:18:24;101914.73;;;14.57;70.54
55550;BME280;41397;49.972;18.944;2023-04-19T03:21:25;101919.47;;;14.55;70.48
55550;BME280;41397;49.972;18.944;2023-04-19T03:24:30;101912.42;;;14.51;70.27
55550;BME280;41397;49.972;18.944;2023-04-19T03:27:34;101913.43;;;14.50;70.24
55550;BME280;41397;49.972;18.944;2023-04-19T03:30:36;101903.69;;;14.46;69.78
55550;BME280;41397;49.972;18.944;2023-04-19T03:33:37;101901.66;;;14.48;69.85
55550;BME280;41397;49.972;18.944;2023-04-19T03:36:39;101899.80;;;14.49;69.67
55550;BME280;41397;49.972;18.944;2023-04-19T03:39:41;101894.41;;;14.47;69.65
55550;BME280;41397;49.972;18.944;2023-04-19T03:42:42;101898.28;;;14.44;69.76
55550;BME280;41397;49.972;18.944;2023-04-19T03:45:43;101895.54;;;14.44;69.88
55550;BME280;41397;49.972;18.944;2023-04-19T03:48:45;101890.14;;;14.43;69.88
55550;BME280;41397;49.972;18.944;2023-04-19T03:51:46;101888.40;;;14.42;69.97
55550;BME280;41397;49.972;18.944;2023-04-19T03:54:48;101892.90;;;14.43;69.92
55550;BME280;41397;49.972;18.944;2023-04-19T03:57:50;101883.91;;;14.41;70.00
55550;BME280;41397;49.972;18.944;2023-04-19T04:00:51;101881.52;;;14.36;69.85
55550;BME280;41397;49.972;18.944;2023-04-19T04:03:53;101881.52;;;14.36;70.09
55550;BME280;41397;49.972;18.944;2023-04-19T04:06:56;101875.91;;;14.38;69.93
55550;BME280;41397;49.972;18.944;2023-04-19T04:09:58;101871.27;;;14.38;69.57
55550;BME280;41397;49.972;18.944;2023-04-19T04:12:59;101879.52;;;14.27;69.10
55550;BME280;41397;49.972;18.944;2023-04-19T04:16:01;101881.26;;;14.28;69.54
55550;BME280;41397;49.972;18.944;2023-04-19T04:19:06;101875.48;;;14.20;69.65
55550;BME280;41397;49.972;18.944;2023-04-19T04:22:12;101868.01;;;14.22;69.51
55550;BME280;41397;49.972;18.944;2023-04-19T04:25:19;101867.75;;;14.25;69.82
55550;BME280;41397;49.972;18.944;2023-04-19T04:28:21;101867.86;;;14.24;69.43
55550;BME280;41397;49.972;18.944;2023-04-19T04:31:23;101868.97;;;14.21;69.54
55550;BME280;41397;49.972;18.944;2023-04-19T04:34:26;101873.25;;;14.25;69.77
55550;BME280;41397;49.972;18.944;2023-04-19T04:37:27;101860.10;;;14.17;69.18
55550;BME280;41397;49.972;18.944;2023-04-19T04:40:33;101866.21;;;14.10;69.47
55550;BME280;41397;49.972;18.944;2023-04-19T04:43:35;101870.73;;;14.11;69.53
55550;BME280;41397;49.972;18.944;2023-04-19T04:46:42;101862.34;;;14.12;69.29
55550;BME280;41397;49.972;18.944;2023-04-19T04:49:43;101864.23;;;14.12;69.19
55550;BME280;41397;49.972;18.944;2023-04-19T04:52:44;101859.99;;;14.19;69.70
55550;BME280;41397;49.972;18.944;2023-04-19T04:55:48;101872.84;;;14.18;69.81
55550;BME280;41397;49.972;18.944;2023-04-19T04:58:50;101869.47;;;14.15;70.07
55550;BME280;41397;49.972;18.944;2023-04-19T05:01:51;101870.86;;;14.20;70.27
55550;BME280;41397;49.972;18.944;2023-04-19T05:04:53;101869.49;;;14.26;70.07
55550;BME280;41397;49.972;18.944;2023-04-19T05:07:54;101869.99;;;14.31;70.10
55550;BME280;41397;49.972;18.944;2023-04-19T05:10:58;101875.40;;;14.33;69.96
55550;BME280;41397;49.972;18.944;2023-04-19T05:13:59;101878.65;;;14.38;69.79
55550;BME280;41397;49.972;18.944;2023-04-19T05:17:00;101876.78;;;14.38;69.64
55550;BME280;41397;49.972;18.944;2023-04-19T05:20:03;101882.52;;;14.35;70.02
55550;BME280;41397;49.972;18.944;2023-04-19T05:23:05;101873.51;;;14.33;70.35
55550;BME280;41397;49.972;18.944;2023-04-19T05:26:10;101880.99;;;14.20;68.77
55550;BME280;41397;49.972;18.944;2023-04-19T05:29:16;101879.25;;;14.19;68.72
55550;BME280;41397;49.972;18.944;2023-04-19T05:32:18;101879.37;;;14.17;68.44
55550;BME280;41397;49.972;18.944;2023-04-19T05:35:20;101884.11;;;14.15;68.36
55550;BME280;41397;49.972;18.944;2023-04-19T05:38:21;101877.87;;;14.13;68.18
55550;BME280;41397;49.972;18.944;2023-04-19T05:41:23;101871.72;;;14.10;67.92
55550;BME280;41397;49.972;18.944;2023-04-19T05:44:24;101881.99;;;14.08;68.77
55550;BME280;41397;49.972;18.944;2023-04-19T05:47:26;101869.46;;;14.04;69.41
55550;BME280;41397;49.972;18.944;2023-04-19T05:50:27;101868.34;;;14.06;69.72
55550;BME280;41397;49.972;18.944;2023-04-19T05:53:29;101874.85;;;14.05;70.16
55550;BME280;41397;49.972;18.944;2023-04-19T05:56:31;101879.59;;;14.03;70.23
55550;BME280;41397;49.972;18.944;2023-04-19T05:59:32;101867.07;;;13.99;70.54
55550;BME280;41397;49.972;18.944;2023-04-19T06:02:33;101869.71;;;14.01;70.73
55550;BME280;41397;49.972;18.944;2023-04-19T06:05:35;101869.71;;;14.01;71.18
55550;BME280;41397;49.972;18.944;2023-04-19T06:08:37;101878.84;;;14.01;71.73
55550;BME280;41397;49.972;18.944;2023-04-19T06:11:39;101866.95;;;14.01;71.84
55550;BME280;41397;49.972;18.944;2023-04-19T06:14:40;101869.35;;;14.05;72.09
55550;BME280;41397;49.972;18.944;2023-04-19T06:17:41;101870.99;;;14.08;72.29
55550;BME280;41397;49.972;18.944;2023-04-19T06:20:43;101875.33;;;14.10;72.47
55550;BME280;41397;49.972;18.944;2023-04-19T06:23:51;101876.09;;;14.12;72.42
55550;BME280;41397;49.972;18.944;2023-04-19T06:26:56;101872.12;;;14.16;72.64
55550;BME280;41397;49.972;18.944;2023-04-19T06:33:05;101863.27;;;14.24;72.63
55550;BME280;41397;49.972;18.944;2023-04-19T06:36:07;101866.38;;;14.31;73.39
55550;BME280;41397;49.972;18.944;2023-04-19T06:39:13;101873.51;;;14.33;72.70
55550;BME280;41397;49.972;18.944;2023-04-19T06:42:15;101862.15;;;14.38;72.73
55550;BME280;41397;49.972;18.944;2023-04-19T06:45:20;101864.65;;;14.41;72.38
55550;BME280;41397;49.972;18.944;2023-04-19T06:48:22;101868.01;;;14.44;71.99
55550;BME280;41397;49.972;18.944;2023-04-19T06:51:23;101865.38;;;14.43;72.53
55550;BME280;41397;49.972;18.944;2023-04-19T06:54:26;101878.30;;;14.54;72.98
55550;BME280;41397;49.972;18.944;2023-04-19T06:57:28;101874.05;;;14.61;72.83
55550;BME280;41397;49.972;18.944;2023-04-19T07:00:32;101871.91;;;14.64;72.06
55550;BME280;41397;49.972;18.944;2023-04-19T07:03:44;101872.82;;;14.65;71.12
55550;BME280;41397;49.972;18.944;2023-04-19T07:06:47;101875.69;;;14.63;71.01
55550;BME280;41397;49.972;18.944;2023-04-19T07:09:49;101876.44;;;14.54;69.59
55550;BME280;41397;49.972;18.944;2023-04-19T07:12:51;101875.54;;;14.54;69.83
55550;BME280;41397;49.972;18.944;2023-04-19T07:15:52;101885.91;;;14.50;68.77
55550;BME280;41397;49.972;18.944;2023-04-19T07:18:54;101885.54;;;14.43;68.29
55550;BME280;41397;49.972;18.944;2023-04-19T07:21:56;101886.66;;;14.41;67.53
55550;BME280;41397;49.972;18.944;2023-04-19T07:24:58;101885.76;;;14.29;67.72
55550;BME280;41397;49.972;18.944;2023-04-19T07:27:59;101885.48;;;14.21;67.83
55550;BME280;41397;49.972;18.944;2023-04-19T07:31:15;101880.99;;;14.20;67.27
55550;BME280;41397;49.972;18.944;2023-04-19T07:34:21;101878.76;;;14.25;67.49
55550;BME280;41397;49.972;18.944;2023-04-19T07:37:22;101885.88;;;14.16;66.74
55550;BME280;41397;49.972;18.944;2023-04-19T07:40:24;101874.36;;;14.11;66.39
55550;BME280;41397;49.972;18.944;2023-04-19T07:43:25;101881.34;;;14.15;67.18
55550;BME280;41397;49.972;18.944;2023-04-19T07:46:29;101888.99;;;14.23;67.48
55550;BME280;41397;49.972;18.944;2023-04-19T07:52:58;101881.10;;;14.18;66.65
55550;BME280;41397;49.972;18.944;2023-04-19T07:56:00;101879.62;;;14.26;66.19
55550;BME280;41397;49.972;18.944;2023-04-19T07:59:02;101881.76;;;14.22;65.65
55550;BME280;41397;49.972;18.944;2023-04-19T08:02:03;101887.88;;;14.26;64.68
55550;BME280;41397;49.972;18.944;2023-04-19T08:05:05;101894.91;;;14.30;65.43
55550;BME280;41397;49.972;18.944;2023-04-19T08:08:06;101887.37;;;14.20;64.93
55550;BME280;41397;49.972;18.944;2023-04-19T08:11:08;101886.74;;;14.17;64.19
55550;BME280;41397;49.972;18.944;2023-04-19T08:14:10;101887.34;;;14.09;62.73
55550;BME280;41397;49.972;18.944;2023-04-19T08:17:12;101881.74;;;14.11;64.12
55550;BME280;41397;49.972;18.944;2023-04-19T08:20:16;101891.09;;;13.97;63.42
55550;BME280;41397;49.972;18.944;2023-04-19T08:23:21;101890.01;;;13.75;63.21
55550;BME280;41397;49.972;18.944;2023-04-19T08:26:26;101888.90;;;13.78;64.01
55550;BME280;41397;49.972;18.944;2023-04-19T08:29:28;101893.56;;;13.89;65.29
55550;BME280;41397;49.972;18.944;2023-04-19T08:32:29;101884.93;;;13.93;64.87
55550;BME280;41397;49.972;18.944;2023-04-19T08:35:33;101890.95;;;13.98;64.55
55550;BME280;41397;49.972;18.944;2023-04-19T08:38:35;101887.22;;;13.99;65.24
55550;BME280;41397;49.972;18.944;2023-04-19T08:41:41;101890.23;;;14.08;64.11
55550;BME280;41397;49.972;18.944;2023-04-19T08:44:45;101888.74;;;14.15;63.79
55550;BME280;41397;49.972;18.944;2023-04-19T08:47:48;101892.87;;;14.20;63.65
55550;BME280;41397;49.972;18.944;2023-04-19T08:50:51;101879.88;;;14.34;63.76
55550;BME280;41397;49.972;18.944;2023-04-19T08:53:54;101885.64;;;14.42;62.95
55550;BME280;41397;49.972;18.944;2023-04-19T08:57:00;101888.55;;;14.40;61.62
55550;BME280;41397;49.972;18.944;2023-04-19T09:00:03;101884.41;;;14.46;62.22
55550;BME280;41397;49.972;18.944;2023-04-19T09:03:10;101889.30;;;14.54;61.69
55550;BME280;41397;49.972;18.944;2023-04-19T09:06:12;101882.13;;;14.51;61.30
55550;BME280;41397;49.972;18.944;2023-04-19T09:09:17;101891.84;;;14.57;61.74
55550;BME280;41397;49.972;18.944;2023-04-19T09:12:18;101892.20;;;14.63;62.18
55550;BME280;41397;49.972;18.944;2023-04-19T09:18:32;101885.57;;;14.55;61.56
55550;BME280;41397;49.972;18.944;2023-04-19T09:21:39;101885.64;;;14.42;60.78
55550;BME280;41397;49.972;18.944;2023-04-19T09:24:40;101881.41;;;14.38;60.54
55550;BME280;41397;49.972;18.944;2023-04-19T09:27:42;101892.03;;;14.42;60.92
55550;BME280;41397;49.972;18.944;2023-04-19T09:30:44;101890.88;;;14.23;60.09
55550;BME280;41397;49.972;18.944;2023-04-19T09:33:47;101888.49;;;14.18;60.10
55550;BME280;41397;49.972;18.944;2023-04-19T09:36:48;101883.91;;;14.41;64.79
55550;BME280;41397;49.972;18.944;2023-04-19T09:39:52;101890.07;;;14.56;63.91
55550;BME280;41397;49.972;18.944;2023-04-19T09:42:54;101893.93;;;14.76;62.21
55550;BME280;41397;49.972;18.944;2023-04-19T09:45:55;101894.18;;;15.06;66.31
55550;BME280;41397;49.972;18.944;2023-04-19T09:52:12;101885.46;;;15.66;59.51
55550;BME280;41397;49.972;18.944;2023-04-19T09:55:15;101896.35;;;15.79;59.42
55550;BME280;41397;49.972;18.944;2023-04-19T09:58:18;101878.48;;;15.94;58.29
55550;BME280;41397;49.972;18.944;2023-04-19T10:01:25;101889.24;;;15.97;56.23
55550;BME280;41397;49.972;18.944;2023-04-19T10:04:29;101880.37;;;15.93;55.07
55550;BME280;41397;49.972;18.944;2023-04-19T10:07:31;101883.79;;;15.86;54.68
55550;BME280;41397;49.972;18.944;2023-04-19T10:10:33;101873.75;;;15.85;56.09
55550;BME280;41397;49.972;18.944;2023-04-19T10:13:36;101886.94;;;15.81;53.80
55550;BME280;41397;49.972;18.944;2023-04-19T10:16:38;101882.36;;;15.59;54.78
55550;BME280;41397;49.972;18.944;2023-04-19T10:19:40;101880.48;;;15.60;54.77
55550;BME280;41397;49.972;18.944;2023-04-19T10:22:42;101869.16;;;15.74;53.66
55550;BME280;41397;49.972;18.944;2023-04-19T10:25:47;101874.17;;;15.80;52.41
55550;BME280;41397;49.972;18.944;2023-04-19T10:28:49;101878.20;;;15.65;52.09
55550;BME280;41397;49.972;18.944;2023-04-19T10:31:50;101874.56;;;15.32;51.75
55550;BME280;41397;49.972;18.944;2023-04-19T10:34:52;101876.80;;;15.38;53.01
55550;BME280;41397;49.972;18.944;2023-04-19T10:38:04;101887.09;;;15.36;53.75
55550;BME280;41397;49.972;18.944;2023-04-19T10:41:09;101895.37;;;15.25;52.09
55550;BME280;41397;49.972;18.944;2023-04-19T10:44:16;101882.00;;;15.20;52.26
55550;BME280;41397;49.972;18.944;2023-04-19T10:53:48;101896.30;;;14.92;52.70
55550;BME280;41397;49.972;18.944;2023-04-19T10:56:57;101896.05;;;14.95;53.05
55550;BME280;41397;49.972;18.944;2023-04-19T11:06:28;101905.95;;;14.97;57.67
55550;BME280;41397;49.972;18.944;2023-04-19T11:09:36;101895.91;;;15.07;58.39
55550;BME280;41397;49.972;18.944;2023-04-19T11:12:42;101901.58;;;15.06;58.58
55550;BME280;41397;49.972;18.944;2023-04-19T11:15:44;101892.29;;;15.07;58.46
55550;BME280;41397;49.972;18.944;2023-04-19T11:18:46;101888.52;;;15.08;58.74
55550;BME280;41397;49.972;18.944;2023-04-19T11:21:48;101894.66;;;15.00;58.72
55550;BME280;41397;49.972;18.944;2023-04-19T11:24:50;101900.56;;;15.07;58.71
55550;BME280;41397;49.972;18.944;2023-04-19T11:27:52;101889.66;;;15.05;58.72
55550;BME280;41397;49.972;18.944;2023-04-19T11:30:55;101893.42;;;15.04;58.39
55550;BME280;41397;49.972;18.944;2023-04-19T11:33:58;101894.29;;;15.05;58.66
55550;BME280;41397;49.972;18.944;2023-04-19T11:37:00;101908.94;;;15.05;58.59
55550;BME280;41397;49.972;18.944;2023-04-19T11:40:04;101902.21;;;14.98;58.74
55550;BME280;41397;49.972;18.944;2023-04-19T11:43:06;101907.06;;;14.95;59.08
55550;BME280;41397;49.972;18.944;2023-04-19T11:46:09;101913.60;;;14.94;58.51
55550;BME280;41397;49.972;18.944;2023-04-19T11:52:25;101913.35;;;14.74;58.76
55550;BME280;41397;49.972;18.944;2023-04-19T11:55:32;101915.09;;;14.86;69.61
55550;BME280;41397;49.972;18.944;2023-04-19T11:58:42;101914.10;;;14.99;62.29
55550;BME280;41397;49.972;18.944;2023-04-19T12:01:47;101911.34;;;14.99;65.09
55550;BME280;41397;49.972;18.944;2023-04-19T12:04:50;101919.19;;;15.26;67.45
55550;BME280;41397;49.972;18.944;2023-04-19T12:11:16;101923.94;;;15.24;58.54
55550;BME280;41397;49.972;18.944;2023-04-19T12:14:21;101917.70;;;15.10;58.16
55550;BME280;41397;49.972;18.944;2023-04-19T12:17:23;101927.98;;;14.97;58.42
55550;BME280;41397;49.972;18.944;2023-04-19T12:20:35;101924.11;;;14.88;58.84
55550;BME280;41397;49.972;18.944;2023-04-19T12:23:38;101929.63;;;14.66;58.87
55550;BME280;41397;49.972;18.944;2023-04-19T12:29:52;101930.95;;;14.49;59.49
55550;BME280;41397;49.972;18.944;2023-04-19T12:32:54;101928.80;;;14.30;59.39
55550;BME280;41397;49.972;18.944;2023-04-19T12:35:56;101939.13;;;14.15;59.77
55550;BME280;41397;49.972;18.944;2023-04-19T12:38:59;101934.52;;;14.16;60.44
55550;BME280;41397;49.972;18.944;2023-04-19T12:42:01;101922.34;;;14.07;60.45
55550;BME280;41397;49.972;18.944;2023-04-19T12:45:04;101922.48;;;14.06;60.64
55550;BME280;41397;49.972;18.944;2023-04-19T12:48:06;101926.84;;;13.97;61.06
55550;BME280;41397;49.972;18.944;2023-04-19T12:51:08;101923.33;;;13.95;60.99
55550;BME280;41397;49.972;18.944;2023-04-19T12:54:10;101925.27;;;13.82;61.08
55550;BME280;41397;49.972;18.944;2023-04-19T12:57:12;101920.92;;;13.90;61.14
55550;BME280;41397;49.972;18.944;2023-04-19T13:00:17;101925.27;;;13.82;61.50
55550;BME280;41397;49.972;18.944;2023-04-19T13:03:19;101926.38;;;13.79;61.69
55550;BME280;41397;49.972;18.944;2023-04-19T13:06:21;101923.39;;;13.82;61.85
55550;BME280;41397;49.972;18.944;2023-04-19T13:09:23;101929.02;;;13.81;61.82
55550;BME280;41397;49.972;18.944;2023-04-19T13:12:24;101931.99;;;13.77;61.92
55550;BME280;41397;49.972;18.944;2023-04-19T13:15:26;101925.23;;;13.70;62.10
55550;BME280;41397;49.972;18.944;2023-04-19T13:18:29;101917.74;;;13.72;62.37
55550;BME280;41397;49.972;18.944;2023-04-19T13:21:32;101925.23;;;13.70;62.56
55550;BME280;41397;49.972;18.944;2023-04-19T13:24:34;101928.95;;;13.69;62.70
55550;BME280;41397;49.972;18.944;2023-04-19T13:27:40;101925.71;;;13.64;62.90
55550;BME280;41397;49.972;18.944;2023-04-19T13:30:42;101924.06;;;13.62;62.42
55550;BME280;41397;49.972;18.944;2023-04-19T13:33:44;101922.05;;;13.64;62.66
55550;BME280;41397;49.972;18.944;2023-04-19T13:36:52;101922.42;;;13.59;62.81
55550;BME280;41397;49.972;18.944;2023-04-19T13:39:55;101924.89;;;13.51;62.90
55550;BME280;41397;49.972;18.944;2023-04-19T13:42:57;101926.52;;;13.53;62.84
55550;BME280;41397;49.972;18.944;2023-04-19T13:45:59;101927.64;;;13.51;63.13
55550;BME280;41397;49.972;18.944;2023-04-19T13:52:19;101922.38;;;13.48;63.02
55550;BME280;41397;49.972;18.944;2023-04-19T13:55:28;101932.94;;;13.41;63.31
55550;BME280;41397;49.972;18.944;2023-04-19T13:58:41;101932.63;;;13.33;63.71
55550;BME280;41397;49.972;18.944;2023-04-19T14:01:43;101928.68;;;13.37;63.95
55550;BME280;41397;49.972;18.944;2023-04-19T14:04:44;101936.15;;;13.35;64.36
55550;BME280;41397;49.972;18.944;2023-04-19T14:07:46;101931.53;;;13.36;64.58
55550;BME280;41397;49.972;18.944;2023-04-19T14:10:49;101932.88;;;13.30;65.13
55550;BME280;41397;49.972;18.944;2023-04-19T14:13:51;101928.75;;;13.48;71.64
55550;BME280;41397;49.972;18.944;2023-04-19T14:16:53;101922.34;;;13.72;72.63
55550;BME280;41397;49.972;18.944;2023-04-19T14:19:55;101921.83;;;14.02;71.21
55550;BME280;41397;49.972;18.944;2023-04-19T14:22:57;101926.05;;;14.30;70.18
55550;BME280;41397;49.972;18.944;2023-04-19T14:26:00;101919.99;;;14.60;70.13
55550;BME280;41397;49.972;18.944;2023-04-19T14:29:02;101920.34;;;14.78;68.25
55550;BME280;41397;49.972;18.944;2023-04-19T14:32:04;101924.36;;;14.97;67.85
55550;BME280;41397;49.972;18.944;2023-04-19T14:35:07;101920.45;;;15.10;68.67
55550;BME280;41397;49.972;18.944;2023-04-19T14:38:11;101925.57;;;15.26;66.45
55550;BME280;41397;49.972;18.944;2023-04-19T14:41:13;101926.41;;;15.38;65.58
55550;BME280;41397;49.972;18.944;2023-04-19T14:44:14;101926.79;;;15.45;64.47
55550;BME280;41397;49.972;18.944;2023-04-19T14:47:15;101928.27;;;15.49;64.77
55550;BME280;41397;49.972;18.944;2023-04-19T14:50:17;101945.78;;;15.59;69.77
55550;BME280;41397;49.972;18.944;2023-04-19T14:53:18;101939.40;;;15.70;66.51
55550;BME280;41397;49.972;18.944;2023-04-19T14:56:20;101932.23;;;15.67;62.14
55550;BME280;41397;49.972;18.944;2023-04-19T14:59:22;101941.67;;;15.53;60.21
55550;BME280;41397;49.972;18.944;2023-04-19T15:02:25;101947.85;;;15.35;59.74
55550;BME280;41397;49.972;18.944;2023-04-19T15:05:27;101946.64;;;15.05;59.63
55550;BME280;41397;49.972;18.944;2023-04-19T15:08:29;101933.89;;;14.81;60.29
55550;BME280;41397;49.972;18.944;2023-04-19T15:11:31;101950.77;;;14.54;60.87
55550;BME280;41397;49.972;18.944;2023-04-19T15:14:32;101940.95;;;14.39;61.42
55550;BME280;41397;49.972;18.944;2023-04-19T15:17:36;101942.28;;;14.22;61.45
55550;BME280;41397;49.972;18.944;2023-04-19T15:20:56;101947.23;;;14.06;62.26
55550;BME280;41397;49.972;18.944;2023-04-19T15:23:57;101942.67;;;13.93;62.99
55550;BME280;41397;49.972;18.944;2023-04-19T15:26:59;101947.27;;;13.82;62.59
55550;BME280;41397;49.972;18.944;2023-04-19T15:30:03;101935.98;;;13.73;63.07
55550;BME280;41397;49.972;18.944;2023-04-19T15:33:04;101945.16;;;13.61;63.38
55550;BME280;41397;49.972;18.944;2023-04-19T15:36:08;101950.88;;;13.58;63.68
55550;BME280;41397;49.972;18.944;2023-04-19T15:39:09;101954.35;;;13.49;64.21
55550;BME280;41397;49.972;18.944;2023-04-19T15:42:11;101954.35;;;13.49;63.97
55550;BME280;41397;49.972;18.944;2023-04-19T15:45:13;101965.80;;;13.43;64.25
55550;BME280;41397;49.972;18.944;2023-04-19T15:48:16;101966.14;;;13.38;64.63
55550;BME280;41397;49.972;18.944;2023-04-19T15:51:18;101967.25;;;13.36;64.39
55550;BME280;41397;49.972;18.944;2023-04-19T15:54:20;101983.09;;;13.19;64.83
55550;BME280;41397;49.972;18.944;2023-04-19T15:57:23;101977.48;;;13.21;64.86
55550;BME280;41397;49.972;18.944;2023-04-19T16:00:26;101991.55;;;13.16;65.01
55550;BME280;41397;49.972;18.944;2023-04-19T16:03:29;101988.71;;;13.18;64.86
55550;BME280;41397;49.972;18.944;2023-04-19T16:06:31;101991.55;;;13.16;64.94
55550;BME280;41397;49.972;18.944;2023-04-19T16:09:35;101986.94;;;13.17;64.98
55550;BME280;41397;49.972;18.944;2023-04-19T16:12:37;101988.39;;;13.09;65.04
55550;BME280;41397;49.972;18.944;2023-04-19T16:15:39;101991.78;;;13.13;65.39
55550;BME280;41397;49.972;18.944;2023-04-19T16:18:41;101998.06;;;13.15;65.54
55550;BME280;41397;49.972;18.944;2023-04-19T16:21:43;102009.91;;;13.16;65.69